sensor_id;sensor_type;location;lat;lon;timestamp;pressure;altitude;pressure_sealevel;temperature;humidity
47913;BME280;33676;51.006;17.180;2023-02-23T00:02:19;100267.52;;;2.54;86.76
47913;BME280;33676;51.006;17.180;2023-02-23T00:04:47;100258.82;;;2.52;86.96
47913;BME280;33676;51.006;17.180;2023-02-23T00:07:16;100262.74;;;2.49;87.02
47913;BME280;33676;51.006;17.180;2023-02-23T00:09:47;100258.71;;;2.47;87.18
47913;BME280;33676;51.006;17.180;2023-02-23T00:12:16;100259.77;;;2.46;87.30
47913;BME280;33676;51.006;17.180;2023-02-23T00:14:44;100260.60;;;2.43;87.35
47913;BME280;33676;51.006;17.180;2023-02-23T00:17:13;100258.84;;;2.40;87.34
47913;BME280;33676;51.006;17.180;2023-02-23T00:19:46;100258.77;;;2.38;87.60
47913;BME280;33676;51.006;17.180;2023-02-23T00:22:16;100254.51;;;2.37;87.48
47913;BME280;33676;51.006;17.180;2023-02-23T00:24:45;100253.92;;;2.34;87.48
47913;BME280;33676;51.006;17.180;2023-02-23T00:27:15;100251.09;;;2.32;87.62
47913;BME280;33676;51.006;17.180;2023-02-23T00:29:48;100248.81;;;2.28;87.74
47913;BME280;33676;51.006;17.180;2023-02-23T00:32:18;100240.36;;;2.25;87.77
47913;BME280;33676;51.006;17.180;2023-02-23T00:34:48;100241.30;;;2.23;87.84
47913;BME280;33676;51.006;17.180;2023-02-23T00:37:18;100244.13;;;2.22;87.97
47913;BME280;33676;51.006;17.180;2023-02-23T00:39:46;100247.13;;;2.20;88.23
47913;BME280;33676;51.006;17.180;2023-02-23T00:42:15;100250.65;;;2.18;87.97
47913;BME280;33676;51.006;17.180;2023-02-23T00:44:43;100249.35;;;2.17;88.22
47913;BME280;33676;51.006;17.180;2023-02-23T00:47:14;100248.41;;;2.14;88.06
47913;BME280;33676;51.006;17.180;2023-02-23T00:49:43;100250.11;;;2.11;88.16
47913;BME280;33676;51.006;17.180;2023-02-23T00:52:12;100249.39;;;2.08;88.32
47913;BME280;33676;51.006;17.180;2023-02-23T00:54:42;100246.73;;;2.06;88.20
47913;BME280;33676;51.006;17.180;2023-02-23T00:57:10;100243.10;;;2.03;88.22
47913;BME280;33676;51.006;17.180;2023-02-23T00:59:38;100238.06;;;1.99;88.36
47913;BME280;33676;51.006;17.180;2023-02-23T01:02:07;100245.05;;;1.97;88.41
47913;BME280;33676;51.006;17.180;2023-02-23T01:04:35;100241.23;;;1.93;88.39
47913;BME280;33676;51.006;17.180;2023-02-23T01:07:04;100237.36;;;1.91;88.68
47913;BME280;33676;51.006;17.180;2023-02-23T01:09:34;100237.16;;;1.88;88.72
47913;BME280;33676;51.006;17.180;2023-02-23T01:12:02;100239.69;;;1.85;88.84
47913;BME280;33676;51.006;17.180;2023-02-23T01:14:35;100235.77;;;1.85;88.64
47913;BME280;33676;51.006;17.180;2023-02-23T01:17:05;100235.15;;;1.83;88.70
47913;BME280;33676;51.006;17.180;2023-02-23T01:19:34;100234.90;;;1.81;88.83
47913;BME280;33676;51.006;17.180;2023-02-23T01:22:03;100234.47;;;1.79;88.92
47913;BME280;33676;51.006;17.180;2023-02-23T01:24:31;100235.02;;;1.78;89.05
47913;BME280;33676;51.006;17.180;2023-02-23T01:27:00;100237.48;;;1.77;88.99
47913;BME280;33676;51.006;17.180;2023-02-23T01:29:28;100232.73;;;1.75;89.03
47913;BME280;33676;51.006;17.180;2023-02-23T01:31:56;100237.95;;;1.73;89.05
47913;BME280;33676;51.006;17.180;2023-02-23T01:34:25;100233.10;;;1.70;89.15
47913;BME280;33676;51.006;17.180;2023-02-23T01:36:54;100229.79;;;1.67;89.17
47913;BME280;33676;51.006;17.180;2023-02-23T01:39:22;100227.98;;;1.65;89.33
47913;BME280;33676;51.006;17.180;2023-02-23T01:41:50;100228.24;;;1.62;89.18
47913;BME280;33676;51.006;17.180;2023-02-23T01:46:49;100222.69;;;1.59;89.43
47913;BME280;33676;51.006;17.180;2023-02-23T01:49:28;100219.98;;;1.58;89.37
47913;BME280;33676;51.006;17.180;2023-02-23T01:52:02;100221.58;;;1.57;89.58
47913;BME280;33676;51.006;17.180;2023-02-23T01:54:43;100222.50;;;1.56;89.46
47913;BME280;33676;51.006;17.180;2023-02-23T01:57:21;100216.88;;;1.55;89.60
47913;BME280;33676;51.006;17.180;2023-02-23T01:59:52;100211.96;;;1.53;89.46
47913;BME280;33676;51.006;17.180;2023-02-23T02:02:23;100210.20;;;1.50;89.47
47913;BME280;33676;51.006;17.180;2023-02-23T02:05:02;100204.59;;;1.48;89.52
47913;BME280;33676;51.006;17.180;2023-02-23T02:07:33;100202.33;;;1.45;89.57
47913;BME280;33676;51.006;17.180;2023-02-23T02:10:03;100199.65;;;1.43;89.68
47913;BME280;33676;51.006;17.180;2023-02-23T02:12:55;100199.05;;;1.41;89.80
47913;BME280;33676;51.006;17.180;2023-02-23T02:15:29;100193.98;;;1.38;89.83
47913;BME280;33676;51.006;17.180;2023-02-23T02:18:31;100196.46;;;1.37;89.96
47913;BME280;33676;51.006;17.180;2023-02-23T02:28:45;100196.42;;;1.33;90.25
47913;BME280;33676;51.006;17.180;2023-02-23T02:30:48;100195.67;;;1.30;90.25
47913;BME280;33676;51.006;17.180;2023-02-23T02:42:36;100192.54;;;1.23;90.52
47913;BME280;33676;51.006;17.180;2023-02-23T02:45:16;100191.54;;;1.22;90.44
47913;BME280;33676;51.006;17.180;2023-02-23T02:48:22;100194.88;;;1.20;90.71
47913;BME280;33676;51.006;17.180;2023-02-23T02:51:04;100194.10;;;1.18;90.73
47913;BME280;33676;51.006;17.180;2023-02-23T02:56:40;100190.62;;;1.15;90.76
47913;BME280;33676;51.006;17.180;2023-02-23T02:59:16;100191.19;;;1.14;90.65
47913;BME280;33676;51.006;17.180;2023-02-23T03:02:05;100193.08;;;1.14;91.07
47913;BME280;33676;51.006;17.180;2023-02-23T03:04:52;100189.83;;;1.13;90.90
47913;BME280;33676;51.006;17.180;2023-02-23T03:11:09;100190.65;;;1.10;91.31
47913;BME280;33676;51.006;17.180;2023-02-23T03:14:44;100193.08;;;1.10;91.16
47913;BME280;33676;51.006;17.180;2023-02-23T03:17:43;100187.63;;;1.08;91.28
47913;BME280;33676;51.006;17.180;2023-02-23T03:23:26;100188.63;;;1.09;91.47
47913;BME280;33676;51.006;17.180;2023-02-23T03:26:39;100191.85;;;1.10;91.41
47913;BME280;33676;51.006;17.180;2023-02-23T03:29:36;100189.27;;;1.10;91.56
47913;BME280;33676;51.006;17.180;2023-02-23T03:32:31;100187.71;;;1.10;91.61
47913;BME280;33676;51.006;17.180;2023-02-23T03:35:47;100186.86;;;1.10;91.60
47913;BME280;33676;51.006;17.180;2023-02-23T03:38:55;100188.05;;;1.10;91.83
47913;BME280;33676;51.006;17.180;2023-02-23T03:41:46;100187.00;;;1.11;91.63
47913;BME280;33676;51.006;17.180;2023-02-23T03:44:40;100185.49;;;1.10;91.88
47913;BME280;33676;51.006;17.180;2023-02-23T03:47:33;100190.74;;;1.12;91.94
47913;BME280;33676;51.006;17.180;2023-02-23T03:50:30;100188.78;;;1.14;92.01
47913;BME280;33676;51.006;17.180;2023-02-23T03:53:26;100187.89;;;1.15;91.96
47913;BME280;33676;51.006;17.180;2023-02-23T03:56:16;100189.23;;;1.15;92.11
47913;BME280;33676;51.006;17.180;2023-02-23T03:59:06;100188.88;;;1.16;92.10
47913;BME280;33676;51.006;17.180;2023-02-23T04:01:54;100189.73;;;1.16;92.21
47913;BME280;33676;51.006;17.180;2023-02-23T04:04:43;100188.34;;;1.16;92.30
47913;BME280;33676;51.006;17.180;2023-02-23T04:07:32;100186.93;;;1.17;92.26
47913;BME280;33676;51.006;17.180;2023-02-23T04:10:22;100184.65;;;1.18;92.41
47913;BME280;33676;51.006;17.180;2023-02-23T04:13:17;100185.86;;;1.18;92.38
47913;BME280;33676;51.006;17.180;2023-02-23T04:16:09;100186.85;;;1.19;92.43
47913;BME280;33676;51.006;17.180;2023-02-23T04:18:38;100184.21;;;1.20;92.60
47913;BME280;33676;51.006;17.180;2023-02-23T04:21:07;100186.93;;;1.21;92.74
47913;BME280;33676;51.006;17.180;2023-02-23T04:23:37;100183.63;;;1.22;92.71
47913;BME280;33676;51.006;17.180;2023-02-23T04:26:08;100178.11;;;1.22;92.89
47913;BME280;33676;51.006;17.180;2023-02-23T04:28:36;100181.14;;;1.24;92.78
47913;BME280;33676;51.006;17.180;2023-02-23T04:31:04;100183.34;;;1.24;92.89
47913;BME280;33676;51.006;17.180;2023-02-23T04:33:33;100181.87;;;1.27;92.87
47913;BME280;33676;51.006;17.180;2023-02-23T04:36:01;100184.40;;;1.28;92.90
47913;BME280;33676;51.006;17.180;2023-02-23T04:38:30;100186.56;;;1.30;92.96
47913;BME280;33676;51.006;17.180;2023-02-23T04:40:58;100183.61;;;1.30;93.00
47913;BME280;33676;51.006;17.180;2023-02-23T04:43:27;100182.88;;;1.32;93.02
47913;BME280;33676;51.006;17.180;2023-02-23T04:45:55;100183.70;;;1.32;93.23
47913;BME280;33676;51.006;17.180;2023-02-23T04:48:23;100181.43;;;1.33;93.15
47913;BME280;33676;51.006;17.180;2023-02-23T04:50:53;100181.88;;;1.35;93.12
47913;BME280;33676;51.006;17.180;2023-02-23T04:53:22;100184.61;;;1.36;93.25
47913;BME280;33676;51.006;17.180;2023-02-23T04:55:51;100181.67;;;1.36;93.38
47913;BME280;33676;51.006;17.180;2023-02-23T04:58:19;100182.20;;;1.36;93.21
47913;BME280;33676;51.006;17.180;2023-02-23T05:00:47;100178.71;;;1.37;93.14
47913;BME280;33676;51.006;17.180;2023-02-23T05:03:16;100173.73;;;1.37;93.25
47913;BME280;33676;51.006;17.180;2023-02-23T05:05:45;100175.98;;;1.36;93.14
47913;BME280;33676;51.006;17.180;2023-02-23T05:08:14;100174.41;;;1.37;93.36
47913;BME280;33676;51.006;17.180;2023-02-23T05:10:42;100172.02;;;1.37;93.41
47913;BME280;33676;51.006;17.180;2023-02-23T05:13:11;100171.16;;;1.36;93.50
47913;BME280;33676;51.006;17.180;2023-02-23T05:15:39;100172.05;;;1.36;93.41
47913;BME280;33676;51.006;17.180;2023-02-23T05:18:07;100163.79;;;1.36;93.58
47913;BME280;33676;51.006;17.180;2023-02-23T05:20:36;100165.17;;;1.36;93.65
47913;BME280;33676;51.006;17.180;2023-02-23T05:23:04;100164.16;;;1.35;93.62
47913;BME280;33676;51.006;17.180;2023-02-23T05:25:33;100166.70;;;1.36;93.50
47913;BME280;33676;51.006;17.180;2023-02-23T05:28:01;100162.95;;;1.35;93.52
47913;BME280;33676;51.006;17.180;2023-02-23T05:30:30;100162.45;;;1.34;93.65
47913;BME280;33676;51.006;17.180;2023-02-23T05:33:00;100163.13;;;1.34;93.71
47913;BME280;33676;51.006;17.180;2023-02-23T05:35:28;100159.19;;;1.34;93.68
47913;BME280;33676;51.006;17.180;2023-02-23T05:37:57;100158.33;;;1.34;93.87
47913;BME280;33676;51.006;17.180;2023-02-23T05:40:25;100160.06;;;1.34;93.96
47913;BME280;33676;51.006;17.180;2023-02-23T05:42:58;100160.95;;;1.33;94.15
47913;BME280;33676;51.006;17.180;2023-02-23T05:45:26;100159.89;;;1.34;94.03
47913;BME280;33676;51.006;17.180;2023-02-23T05:47:55;100166.08;;;1.34;94.00
47913;BME280;33676;51.006;17.180;2023-02-23T05:50:24;100166.94;;;1.34;94.18
47913;BME280;33676;51.006;17.180;2023-02-23T05:52:52;100167.95;;;1.35;94.22
47913;BME280;33676;51.006;17.180;2023-02-23T05:55:21;100165.55;;;1.35;94.40
47913;BME280;33676;51.006;17.180;2023-02-23T05:57:49;100164.84;;;1.35;94.58
47913;BME280;33676;51.006;17.180;2023-02-23T06:00:18;100160.52;;;1.36;94.55
47913;BME280;33676;51.006;17.180;2023-02-23T06:02:47;100163.78;;;1.36;94.50
47913;BME280;33676;51.006;17.180;2023-02-23T06:05:17;100163.78;;;1.36;94.36
47913;BME280;33676;51.006;17.180;2023-02-23T06:07:45;100164.46;;;1.36;94.60
47913;BME280;33676;51.006;17.180;2023-02-23T06:10:15;100161.83;;;1.37;94.65
47913;BME280;33676;51.006;17.180;2023-02-23T06:12:43;100163.35;;;1.38;94.73
47913;BME280;33676;51.006;17.180;2023-02-23T06:15:12;100166.37;;;1.40;94.71
47913;BME280;33676;51.006;17.180;2023-02-23T06:17:40;100165.61;;;1.41;94.70
47913;BME280;33676;51.006;17.180;2023-02-23T06:20:09;100165.53;;;1.43;94.86
47913;BME280;33676;51.006;17.180;2023-02-23T06:22:38;100165.98;;;1.45;94.96
47913;BME280;33676;51.006;17.180;2023-02-23T06:25:07;100168.17;;;1.46;94.94
47913;BME280;33676;51.006;17.180;2023-02-23T06:27:40;100168.72;;;1.49;94.87
47913;BME280;33676;51.006;17.180;2023-02-23T06:30:12;100168.90;;;1.53;95.10
47913;BME280;33676;51.006;17.180;2023-02-23T06:32:40;100167.16;;;1.57;95.07
47913;BME280;33676;51.006;17.180;2023-02-23T06:35:09;100172.46;;;1.61;95.02
47913;BME280;33676;51.006;17.180;2023-02-23T06:37:38;100168.67;;;1.66;95.14
47913;BME280;33676;51.006;17.180;2023-02-23T06:40:09;100168.83;;;1.71;94.92
47913;BME280;33676;51.006;17.180;2023-02-23T06:42:38;100173.64;;;1.75;95.14
47913;BME280;33676;51.006;17.180;2023-02-23T06:45:07;100172.12;;;1.78;94.93
47913;BME280;33676;51.006;17.180;2023-02-23T06:47:35;100172.50;;;1.81;95.01
47913;BME280;33676;51.006;17.180;2023-02-23T06:50:06;100169.10;;;1.84;95.23
47913;BME280;33676;51.006;17.180;2023-02-23T06:52:35;100166.54;;;1.87;95.33
47913;BME280;33676;51.006;17.180;2023-02-23T06:55:05;100164.09;;;1.92;94.99
47913;BME280;33676;51.006;17.180;2023-02-23T06:57:34;100165.77;;;1.96;95.32
47913;BME280;33676;51.006;17.180;2023-02-23T07:00:03;100162.81;;;2.02;95.19
47913;BME280;33676;51.006;17.180;2023-02-23T07:02:32;100162.39;;;2.07;95.29
47913;BME280;33676;51.006;17.180;2023-02-23T07:05:03;100159.88;;;2.12;95.40
47913;BME280;33676;51.006;17.180;2023-02-23T07:07:31;100160.66;;;2.17;95.13
47913;BME280;33676;51.006;17.180;2023-02-23T07:10:00;100157.54;;;2.22;95.10
47913;BME280;33676;51.006;17.180;2023-02-23T07:12:29;100156.67;;;2.26;95.06
47913;BME280;33676;51.006;17.180;2023-02-23T07:14:58;100155.56;;;2.31;95.13
47913;BME280;33676;51.006;17.180;2023-02-23T07:17:26;100156.13;;;2.38;95.14
47913;BME280;33676;51.006;17.180;2023-02-23T07:19:55;100154.33;;;2.43;94.98
47913;BME280;33676;51.006;17.180;2023-02-23T07:22:24;100156.48;;;2.49;94.95
47913;BME280;33676;51.006;17.180;2023-02-23T07:24:56;100153.82;;;2.54;94.80
47913;BME280;33676;51.006;17.180;2023-02-23T07:27:25;100152.73;;;2.59;94.66
47913;BME280;33676;51.006;17.180;2023-02-23T07:29:54;100152.00;;;2.62;94.64
47913;BME280;33676;51.006;17.180;2023-02-23T07:32:23;100153.86;;;2.67;94.50
47913;BME280;33676;51.006;17.180;2023-02-23T07:34:51;100150.19;;;2.72;94.79
47913;BME280;33676;51.006;17.180;2023-02-23T07:37:21;100148.61;;;2.76;94.54
47913;BME280;33676;51.006;17.180;2023-02-23T07:39:49;100147.67;;;2.81;94.66
47913;BME280;33676;51.006;17.180;2023-02-23T07:42:17;100151.42;;;2.86;94.66
47913;BME280;33676;51.006;17.180;2023-02-23T07:44:46;100146.48;;;2.91;94.62
47913;BME280;33676;51.006;17.180;2023-02-23T07:47:14;100143.69;;;2.96;94.46
47913;BME280;33676;51.006;17.180;2023-02-23T07:49:43;100147.55;;;3.02;94.54
47913;BME280;33676;51.006;17.180;2023-02-23T07:52:11;100144.48;;;3.08;94.47
47913;BME280;33676;51.006;17.180;2023-02-23T07:54:40;100144.52;;;3.14;94.47
47913;BME280;33676;51.006;17.180;2023-02-23T07:57:08;100144.77;;;3.19;94.43
47913;BME280;33676;51.006;17.180;2023-02-23T07:59:36;100144.02;;;3.27;94.73
47913;BME280;33676;51.006;17.180;2023-02-23T08:02:06;100138.52;;;3.37;94.66
47913;BME280;33676;51.006;17.180;2023-02-23T08:04:34;100135.16;;;3.45;94.46
47913;BME280;33676;51.006;17.180;2023-02-23T08:07:03;100132.33;;;3.53;94.39
47913;BME280;33676;51.006;17.180;2023-02-23T08:09:32;100131.23;;;3.61;94.45
47913;BME280;33676;51.006;17.180;2023-02-23T08:12:02;100129.64;;;3.71;94.52
47913;BME280;33676;51.006;17.180;2023-02-23T08:14:30;100132.74;;;3.81;94.57
47913;BME280;33676;51.006;17.180;2023-02-23T08:16:59;100130.12;;;3.92;94.60
47913;BME280;33676;51.006;17.180;2023-02-23T08:19:28;100131.15;;;4.02;94.40
47913;BME280;33676;51.006;17.180;2023-02-23T08:21:57;100130.52;;;4.14;94.66
47913;BME280;33676;51.006;17.180;2023-02-23T08:24:26;100131.27;;;4.25;94.51
47913;BME280;33676;51.006;17.180;2023-02-23T08:26:57;100131.91;;;4.38;94.82
47913;BME280;33676;51.006;17.180;2023-02-23T08:29:26;100127.44;;;4.53;95.00
47913;BME280;33676;51.006;17.180;2023-02-23T08:31:54;100129.65;;;4.70;94.89
47913;BME280;33676;51.006;17.180;2023-02-23T08:34:23;100125.69;;;4.85;94.94
47913;BME280;33676;51.006;17.180;2023-02-23T08:36:51;100129.43;;;5.01;94.89
47913;BME280;33676;51.006;17.180;2023-02-23T08:39:21;100135.44;;;5.20;95.09
47913;BME280;33676;51.006;17.180;2023-02-23T08:41:50;100130.40;;;5.38;94.93
47913;BME280;33676;51.006;17.180;2023-02-23T08:44:20;100126.71;;;5.53;94.62
47913;BME280;33676;51.006;17.180;2023-02-23T08:46:48;100124.22;;;5.69;94.37
47913;BME280;33676;51.006;17.180;2023-02-23T08:49:16;100120.06;;;5.85;94.34
47913;BME280;33676;51.006;17.180;2023-02-23T08:51:45;100117.88;;;6.05;94.34
47913;BME280;33676;51.006;17.180;2023-02-23T08:54:14;100116.06;;;6.22;94.01
47913;BME280;33676;51.006;17.180;2023-02-23T08:56:43;100115.56;;;6.41;93.82
47913;BME280;33676;51.006;17.180;2023-02-23T08:59:13;100117.13;;;6.60;93.97
47913;BME280;33676;51.006;17.180;2023-02-23T09:01:41;100117.25;;;6.82;94.01
47913;BME280;33676;51.006;17.180;2023-02-23T09:04:10;100115.33;;;7.00;93.72
47913;BME280;33676;51.006;17.180;2023-02-23T09:06:39;100114.58;;;7.20;93.77
47913;BME280;33676;51.006;17.180;2023-02-23T09:09:08;100113.45;;;7.39;93.59
47913;BME280;33676;51.006;17.180;2023-02-23T09:11:36;100113.14;;;7.54;93.22
47913;BME280;33676;51.006;17.180;2023-02-23T09:14:04;100112.54;;;7.68;92.53
47913;BME280;33676;51.006;17.180;2023-02-23T09:16:34;100111.45;;;7.81;92.54
47913;BME280;33676;51.006;17.180;2023-02-23T09:19:03;100112.45;;;7.94;92.09
47913;BME280;33676;51.006;17.180;2023-02-23T09:21:31;100112.71;;;8.05;91.69
47913;BME280;33676;51.006;17.180;2023-02-23T09:24:01;100109.34;;;8.16;91.36
47913;BME280;33676;51.006;17.180;2023-02-23T09:26:30;100107.58;;;8.28;91.06
47913;BME280;33676;51.006;17.180;2023-02-23T09:29:00;100104.16;;;8.39;90.85
47913;BME280;33676;51.006;17.180;2023-02-23T09:31:29;100105.08;;;8.51;90.60
47913;BME280;33676;51.006;17.180;2023-02-23T09:33:58;100103.39;;;8.65;90.70
47913;BME280;33676;51.006;17.180;2023-02-23T09:36:30;100100.34;;;8.80;90.72
47913;BME280;33676;51.006;17.180;2023-02-23T09:38:59;100096.09;;;8.90;90.07
47913;BME280;33676;51.006;17.180;2023-02-23T09:44:47;100099.56;;;9.09;89.46
47913;BME280;33676;51.006;17.180;2023-02-23T09:47:36;100090.90;;;9.24;89.10
47913;BME280;33676;51.006;17.180;2023-02-23T09:50:20;100094.95;;;9.43;89.44
47913;BME280;33676;51.006;17.180;2023-02-23T09:53:02;100090.44;;;9.65;89.30
47913;BME280;33676;51.006;17.180;2023-02-23T09:55:32;100088.24;;;9.84;89.01
47913;BME280;33676;51.006;17.180;2023-02-23T09:58:11;100088.05;;;9.97;88.33
47913;BME280;33676;51.006;17.180;2023-02-23T10:00:49;100081.49;;;10.12;87.81
47913;BME280;33676;51.006;17.180;2023-02-23T10:03:29;100084.81;;;10.28;88.09
47913;BME280;33676;51.006;17.180;2023-02-23T10:06:06;100082.29;;;10.50;88.28
47913;BME280;33676;51.006;17.180;2023-02-23T10:11:26;100074.38;;;10.76;87.16
47913;BME280;33676;51.006;17.180;2023-02-23T10:20:12;100074.23;;;11.13;86.58
47913;BME280;33676;51.006;17.180;2023-02-23T10:22:46;100074.60;;;11.26;86.24
47913;BME280;33676;51.006;17.180;2023-02-23T10:25:20;100071.45;;;11.32;85.90
47913;BME280;33676;51.006;17.180;2023-02-23T10:27:52;100067.55;;;11.39;85.48
47913;BME280;33676;51.006;17.180;2023-02-23T10:30:30;100071.09;;;11.39;84.65
47913;BME280;33676;51.006;17.180;2023-02-23T10:35:30;100062.38;;;11.38;83.96
47913;BME280;33676;51.006;17.180;2023-02-23T10:38:00;100059.70;;;11.41;83.89
47913;BME280;33676;51.006;17.180;2023-02-23T10:40:32;100057.20;;;11.47;83.81
47913;BME280;33676;51.006;17.180;2023-02-23T10:43:01;100053.23;;;11.53;83.83
47913;BME280;33676;51.006;17.180;2023-02-23T10:45:36;100051.63;;;11.59;83.90
47913;BME280;33676;51.006;17.180;2023-02-23T10:48:15;100047.42;;;11.65;84.02
47913;BME280;33676;51.006;17.180;2023-02-23T10:50:44;100045.80;;;11.76;84.05
47913;BME280;33676;51.006;17.180;2023-02-23T10:53:26;100040.37;;;11.88;84.10
47913;BME280;33676;51.006;17.180;2023-02-23T10:56:14;100037.94;;;12.00;83.76
47913;BME280;33676;51.006;17.180;2023-02-23T10:58:50;100037.13;;;12.09;83.70
47913;BME280;33676;51.006;17.180;2023-02-23T11:01:39;100034.11;;;12.17;83.39
47913;BME280;33676;51.006;17.180;2023-02-23T11:04:31;100028.08;;;12.28;83.33
47913;BME280;33676;51.006;17.180;2023-02-23T11:07:12;100023.33;;;12.36;83.07
47913;BME280;33676;51.006;17.180;2023-02-23T11:09:42;100020.69;;;12.50;83.19
47913;BME280;33676;51.006;17.180;2023-02-23T11:12:36;100016.55;;;12.68;83.10
47913;BME280;33676;51.006;17.180;2023-02-23T11:18:18;100007.44;;;13.35;83.36
47913;BME280;33676;51.006;17.180;2023-02-23T11:20:47;100001.01;;;13.63;83.02
47913;BME280;33676;51.006;17.180;2023-02-23T11:23:33;100000.94;;;13.90;82.82
47913;BME280;33676;51.006;17.180;2023-02-23T11:26:19;99998.89;;;14.21;82.83
47913;BME280;33676;51.006;17.180;2023-02-23T11:28:54;99998.83;;;14.56;82.98
47913;BME280;33676;51.006;17.180;2023-02-23T11:31:31;99994.79;;;14.89;83.07
47913;BME280;33676;51.006;17.180;2023-02-23T11:34:04;99988.02;;;15.17;82.72
47913;BME280;33676;51.006;17.180;2023-02-23T11:36:35;99982.34;;;15.39;82.34
47913;BME280;33676;51.006;17.180;2023-02-23T11:39:19;99981.58;;;15.54;81.78
47913;BME280;33676;51.006;17.180;2023-02-23T11:42:21;99976.26;;;15.63;80.76
47913;BME280;33676;51.006;17.180;2023-02-23T11:45:02;99970.77;;;15.69;80.69
47913;BME280;33676;51.006;17.180;2023-02-23T11:47:33;99971.09;;;15.76;80.15
47913;BME280;33676;51.006;17.180;2023-02-23T11:50:03;99968.09;;;15.76;79.55
47913;BME280;33676;51.006;17.180;2023-02-23T11:52:33;99969.51;;;15.76;79.05
47913;BME280;33676;51.006;17.180;2023-02-23T11:55:15;99969.84;;;15.77;78.83
47913;BME280;33676;51.006;17.180;2023-02-23T11:57:44;99962.91;;;15.80;78.34
47913;BME280;33676;51.006;17.180;2023-02-23T12:00:34;99961.10;;;15.82;78.41
47913;BME280;33676;51.006;17.180;2023-02-23T12:03:03;99954.00;;;15.85;77.97
47913;BME280;33676;51.006;17.180;2023-02-23T12:05:32;99957.35;;;15.87;77.78
47913;BME280;33676;51.006;17.180;2023-02-23T12:08:20;99953.55;;;15.90;77.70
47913;BME280;33676;51.006;17.180;2023-02-23T12:10:57;99950.08;;;15.87;77.36
47913;BME280;33676;51.006;17.180;2023-02-23T12:13:44;99945.09;;;15.90;77.66
47913;BME280;33676;51.006;17.180;2023-02-23T12:16:25;99938.66;;;15.94;77.64
47913;BME280;33676;51.006;17.180;2023-02-23T12:21:42;99936.86;;;16.14;77.84
47913;BME280;33676;51.006;17.180;2023-02-23T12:24:27;99933.16;;;16.20;77.41
47913;BME280;33676;51.006;17.180;2023-02-23T12:27:10;99933.86;;;16.27;77.16
47913;BME280;33676;51.006;17.180;2023-02-23T12:32:27;99926.66;;;16.42;77.10
47913;BME280;33676;51.006;17.180;2023-02-23T12:35:05;99920.48;;;16.54;77.07
47913;BME280;33676;51.006;17.180;2023-02-23T12:37:42;99919.75;;;16.60;76.35
47913;BME280;33676;51.006;17.180;2023-02-23T12:40:26;99914.58;;;16.65;76.42
47913;BME280;33676;51.006;17.180;2023-02-23T12:43:34;99910.88;;;16.69;76.31
47913;BME280;33676;51.006;17.180;2023-02-23T12:46:11;99906.80;;;16.75;76.35
47913;BME280;33676;51.006;17.180;2023-02-23T12:52:02;99899.19;;;17.04;76.48
47913;BME280;33676;51.006;17.180;2023-02-23T12:54:35;99893.13;;;17.18;76.49
47913;BME280;33676;51.006;17.180;2023-02-23T12:59:57;99887.47;;;17.50;76.09
47913;BME280;33676;51.006;17.180;2023-02-23T13:02:39;99887.98;;;17.67;76.05
47913;BME280;33676;51.006;17.180;2023-02-23T13:05:31;99884.64;;;17.88;76.20
47913;BME280;33676;51.006;17.180;2023-02-23T13:11:21;99882.05;;;18.09;75.09
47913;BME280;33676;51.006;17.180;2023-02-23T13:14:02;99880.02;;;18.10;74.78
47913;BME280;33676;51.006;17.180;2023-02-23T13:17:06;99880.62;;;18.09;74.77
47913;BME280;33676;51.006;17.180;2023-02-23T13:19:48;99875.17;;;18.06;74.56
47913;BME280;33676;51.006;17.180;2023-02-23T13:22:44;99872.52;;;18.03;74.20
47913;BME280;33676;51.006;17.180;2023-02-23T13:28:41;99868.49;;;17.83;73.81
47913;BME280;33676;51.006;17.180;2023-02-23T13:31:31;99867.54;;;17.83;74.25
47913;BME280;33676;51.006;17.180;2023-02-23T13:34:04;99864.20;;;17.91;74.21
47913;BME280;33676;51.006;17.180;2023-02-23T13:36:34;99863.65;;;17.94;73.93
47913;BME280;33676;51.006;17.180;2023-02-23T13:45:25;99854.77;;;18.03;72.87
47913;BME280;33676;51.006;17.180;2023-02-23T13:48:10;99852.66;;;18.12;73.21
47913;BME280;33676;51.006;17.180;2023-02-23T13:51:03;99851.57;;;18.34;73.34
47913;BME280;33676;51.006;17.180;2023-02-23T13:53:42;99849.09;;;18.59;73.41
47913;BME280;33676;51.006;17.180;2023-02-23T13:56:21;99846.34;;;18.84;73.29
47913;BME280;33676;51.006;17.180;2023-02-23T13:59:08;99847.40;;;19.12;73.44
47913;BME280;33676;51.006;17.180;2023-02-23T14:01:46;99848.83;;;19.45;73.35
47913;BME280;33676;51.006;17.180;2023-02-23T14:04:23;99846.58;;;19.60;72.43
47913;BME280;33676;51.006;17.180;2023-02-23T14:07:04;99849.20;;;19.73;72.43
47913;BME280;33676;51.006;17.180;2023-02-23T14:09:52;99847.86;;;19.91;72.30
47913;BME280;33676;51.006;17.180;2023-02-23T14:12:37;99847.75;;;20.01;72.01
47913;BME280;33676;51.006;17.180;2023-02-23T14:15:39;99850.40;;;20.08;71.69
47913;BME280;33676;51.006;17.180;2023-02-23T14:21:03;99844.88;;;20.08;71.08
47913;BME280;33676;51.006;17.180;2023-02-23T14:37:33;99841.04;;;19.05;69.31
47913;BME280;33676;51.006;17.180;2023-02-23T14:40:14;99839.09;;;18.94;69.57
47913;BME280;33676;51.006;17.180;2023-02-23T14:42:52;99838.02;;;18.79;69.53
47913;BME280;33676;51.006;17.180;2023-02-23T14:45:23;99835.68;;;18.59;69.45
47913;BME280;33676;51.006;17.180;2023-02-23T14:48:04;99833.58;;;18.42;69.50
47913;BME280;33676;51.006;17.180;2023-02-23T14:50:35;99834.29;;;18.23;69.34
47913;BME280;33676;51.006;17.180;2023-02-23T14:53:15;99832.85;;;17.97;69.13
47913;BME280;33676;51.006;17.180;2023-02-23T14:55:46;99829.33;;;17.71;69.55
47913;BME280;33676;51.006;17.180;2023-02-23T14:58:23;99829.23;;;17.47;69.46